sensor_id;sensor_type;location;lat;lon;timestamp;P1;durP1;ratioP1;P2;durP2;ratioP2
62071;SDS011;48031;48.542;13.232;2024-03-08T00:02:36;14.18;;;6.35;;
62071;SDS011;48031;48.542;13.232;2024-03-08T00:06:38;11.07;;;6.18;;
62071;SDS011;48031;48.542;13.232;2024-03-08T00:10:41;7.22;;;3.90;;
62071;SDS011;48031;48.542;13.232;2024-03-08T00:14:42;8.43;;;4.85;;
62071;SDS011;48031;48.542;13.232;2024-03-08T00:18:46;9.85;;;4.97;;
62071;SDS011;48031;48.542;13.232;2024-03-08T00:22:49;9.32;;;4.57;;
62071;SDS011;48031;48.542;13.232;2024-03-08T00:26:50;8.38;;;4.65;;
62071;SDS011;48031;48.542;13.232;2024-03-08T00:30:52;11.93;;;5.78;;
62071;SDS011;48031;48.542;13.232;2024-03-08T00:34:54;11.82;;;6.30;;
62071;SDS011;48031;48.542;13.232;2024-03-08T00:38:56;10.30;;;4.28;;
62071;SDS011;48031;48.542;13.232;2024-03-08T00:42:58;12.25;;;4.88;;
62071;SDS011;48031;48.542;13.232;2024-03-08T00:47:00;8.75;;;4.53;;
62071;SDS011;48031;48.542;13.232;2024-03-08T00:51:01;10.93;;;5.32;;
62071;SDS011;48031;48.542;13.232;2024-03-08T00:55:03;13.60;;;5.75;;
62071;SDS011;48031;48.542;13.232;2024-03-08T00:59:06;13.55;;;6.25;;
62071;SDS011;48031;48.542;13.232;2024-03-08T01:03:08;15.80;;;6.63;;
62071;SDS011;48031;48.542;13.232;2024-03-08T01:07:10;11.52;;;5.85;;
62071;SDS011;48031;48.542;13.232;2024-03-08T01:11:15;13.43;;;6.75;;
62071;SDS011;48031;48.542;13.232;2024-03-08T01:15:17;11.10;;;5.03;;
62071;SDS011;48031;48.542;13.232;2024-03-08T01:19:18;12.70;;;6.60;;
62071;SDS011;48031;48.542;13.232;2024-03-08T01:23:20;11.38;;;5.93;;
62071;SDS011;48031;48.542;13.232;2024-03-08T01:27:22;6.63;;;3.42;;
62071;SDS011;48031;48.542;13.232;2024-03-08T01:31:24;5.43;;;3.42;;
62071;SDS011;48031;48.542;13.232;2024-03-08T01:35:26;8.05;;;3.78;;
62071;SDS011;48031;48.542;13.232;2024-03-08T01:39:29;6.97;;;3.40;;
62071;SDS011;48031;48.542;13.232;2024-03-08T01:43:30;4.63;;;2.42;;
62071;SDS011;48031;48.542;13.232;2024-03-08T01:47:32;11.65;;;4.47;;
62071;SDS011;48031;48.542;13.232;2024-03-08T01:51:35;6.15;;;3.65;;
62071;SDS011;48031;48.542;13.232;2024-03-08T02:00:10;7.95;;;4.63;;
62071;SDS011;48031;48.542;13.232;2024-03-08T02:04:13;7.20;;;4.03;;
62071;SDS011;48031;48.542;13.232;2024-03-08T02:08:15;6.85;;;3.40;;
62071;SDS011;48031;48.542;13.232;2024-03-08T02:12:18;12.23;;;5.35;;
62071;SDS011;48031;48.542;13.232;2024-03-08T02:16:22;9.45;;;4.20;;
62071;SDS011;48031;48.542;13.232;2024-03-08T02:20:24;11.35;;;5.32;;
62071;SDS011;48031;48.542;13.232;2024-03-08T02:24:26;6.85;;;3.58;;
62071;SDS011;48031;48.542;13.232;2024-03-08T02:28:28;8.20;;;4.03;;
62071;SDS011;48031;48.542;13.232;2024-03-08T02:32:32;10.52;;;6.07;;
62071;SDS011;48031;48.542;13.232;2024-03-08T02:36:35;6.13;;;3.38;;
62071;SDS011;48031;48.542;13.232;2024-03-08T02:40:36;12.05;;;6.00;;
62071;SDS011;48031;48.542;13.232;2024-03-08T02:44:43;6.70;;;4.25;;
62071;SDS011;48031;48.542;13.232;2024-03-08T02:48:47;8.73;;;4.65;;
62071;SDS011;48031;48.542;13.232;2024-03-08T02:52:50;9.32;;;4.32;;
62071;SDS011;48031;48.542;13.232;2024-03-08T02:56:52;9.15;;;4.05;;
62071;SDS011;48031;48.542;13.232;2024-03-08T03:00:54;5.88;;;3.10;;
62071;SDS011;48031;48.542;13.232;2024-03-08T03:04:56;6.68;;;3.63;;
62071;SDS011;48031;48.542;13.232;2024-03-08T03:08:58;11.52;;;4.82;;
62071;SDS011;48031;48.542;13.232;2024-03-08T03:13:00;10.98;;;4.30;;
62071;SDS011;48031;48.542;13.232;2024-03-08T03:17:02;7.55;;;4.20;;
62071;SDS011;48031;48.542;13.232;2024-03-08T03:21:04;8.57;;;4.57;;
62071;SDS011;48031;48.542;13.232;2024-03-08T03:25:09;10.55;;;4.88;;
62071;SDS011;48031;48.542;13.232;2024-03-08T03:29:11;4.82;;;2.60;;
62071;SDS011;48031;48.542;13.232;2024-03-08T03:33:13;11.25;;;4.00;;
62071;SDS011;48031;48.542;13.232;2024-03-08T03:37:17;10.85;;;5.35;;
62071;SDS011;48031;48.542;13.232;2024-03-08T03:41:19;11.60;;;4.82;;
62071;SDS011;48031;48.542;13.232;2024-03-08T03:45:21;7.07;;;4.25;;
62071;SDS011;48031;48.542;13.232;2024-03-08T03:49:23;10.45;;;5.57;;
62071;SDS011;48031;48.542;13.232;2024-03-08T03:53:25;7.38;;;3.53;;
62071;SDS011;48031;48.542;13.232;2024-03-08T03:57:27;7.97;;;4.50;;
62071;SDS011;48031;48.542;13.232;2024-03-08T04:01:30;8.00;;;4.15;;
62071;SDS011;48031;48.542;13.232;2024-03-08T04:05:32;7.13;;;4.13;;
62071;SDS011;48031;48.542;13.232;2024-03-08T04:09:35;6.82;;;3.45;;
62071;SDS011;48031;48.542;13.232;2024-03-08T04:13:36;11.65;;;5.55;;
62071;SDS011;48031;48.542;13.232;2024-03-08T04:17:38;6.07;;;3.38;;
62071;SDS011;48031;48.542;13.232;2024-03-08T04:21:40;11.68;;;6.15;;
62071;SDS011;48031;48.542;13.232;2024-03-08T04:25:43;12.88;;;6.40;;
62071;SDS011;48031;48.542;13.232;2024-03-08T04:29:45;8.65;;;4.13;;
62071;SDS011;48031;48.542;13.232;2024-03-08T04:33:48;9.25;;;3.80;;
62071;SDS011;48031;48.542;13.232;2024-03-08T04:37:50;8.75;;;3.70;;
62071;SDS011;48031;48.542;13.232;2024-03-08T04:41:52;9.63;;;5.47;;
62071;SDS011;48031;48.542;13.232;2024-03-08T04:45:56;8.00;;;3.83;;
62071;SDS011;48031;48.542;13.232;2024-03-08T04:49:58;7.53;;;3.03;;
62071;SDS011;48031;48.542;13.232;2024-03-08T04:54:01;6.75;;;3.92;;
62071;SDS011;48031;48.542;13.232;2024-03-08T04:58:03;5.68;;;3.10;;
62071;SDS011;48031;48.542;13.232;2024-03-08T05:02:07;8.15;;;4.68;;
62071;SDS011;48031;48.542;13.232;2024-03-08T05:06:09;12.20;;;6.20;;
62071;SDS011;48031;48.542;13.232;2024-03-08T05:10:11;9.95;;;4.35;;
62071;SDS011;48031;48.542;13.232;2024-03-08T05:14:14;15.52;;;7.15;;
62071;SDS011;48031;48.542;13.232;2024-03-08T05:18:19;14.02;;;5.63;;
62071;SDS011;48031;48.542;13.232;2024-03-08T05:22:21;14.35;;;5.55;;
62071;SDS011;48031;48.542;13.232;2024-03-08T05:26:24;15.48;;;8.00;;
62071;SDS011;48031;48.542;13.232;2024-03-08T05:30:26;13.60;;;6.05;;
62071;SDS011;48031;48.542;13.232;2024-03-08T05:34:28;8.10;;;3.47;;
62071;SDS011;48031;48.542;13.232;2024-03-08T05:38:31;8.13;;;3.88;;
62071;SDS011;48031;48.542;13.232;2024-03-08T05:42:33;11.30;;;5.47;;
62071;SDS011;48031;48.542;13.232;2024-03-08T05:46:35;14.57;;;6.80;;
62071;SDS011;48031;48.542;13.232;2024-03-08T05:50:37;7.13;;;3.80;;
62071;SDS011;48031;48.542;13.232;2024-03-08T05:54:39;10.43;;;5.53;;
62071;SDS011;48031;48.542;13.232;2024-03-08T05:58:42;6.43;;;3.33;;
62071;SDS011;48031;48.542;13.232;2024-03-08T06:02:44;13.68;;;4.43;;
62071;SDS011;48031;48.542;13.232;2024-03-08T06:06:46;18.90;;;8.75;;
62071;SDS011;48031;48.542;13.232;2024-03-08T06:10:53;16.63;;;8.27;;
62071;SDS011;48031;48.542;13.232;2024-03-08T06:14:55;13.30;;;6.80;;
62071;SDS011;48031;48.542;13.232;2024-03-08T06:18:57;6.80;;;3.78;;
62071;SDS011;48031;48.542;13.232;2024-03-08T06:22:59;8.50;;;3.67;;
62071;SDS011;48031;48.542;13.232;2024-03-08T06:27:03;9.48;;;4.95;;
62071;SDS011;48031;48.542;13.232;2024-03-08T06:31:05;11.25;;;4.25;;
62071;SDS011;48031;48.542;13.232;2024-03-08T06:35:09;8.90;;;4.28;;
62071;SDS011;48031;48.542;13.232;2024-03-08T06:39:12;9.02;;;4.38;;
62071;SDS011;48031;48.542;13.232;2024-03-08T06:43:14;17.70;;;6.38;;
62071;SDS011;48031;48.542;13.232;2024-03-08T06:47:20;11.65;;;6.35;;
62071;SDS011;48031;48.542;13.232;2024-03-08T06:51:22;12.10;;;4.22;;
62071;SDS011;48031;48.542;13.232;2024-03-08T06:55:24;9.13;;;4.10;;
62071;SDS011;48031;48.542;13.232;2024-03-08T06:59:26;12.30;;;5.47;;
62071;SDS011;48031;48.542;13.232;2024-03-08T07:03:28;6.43;;;3.08;;
62071;SDS011;48031;48.542;13.232;2024-03-08T07:07:31;11.00;;;4.97;;
62071;SDS011;48031;48.542;13.232;2024-03-08T07:11:35;11.82;;;4.65;;
62071;SDS011;48031;48.542;13.232;2024-03-08T07:15:39;14.60;;;6.65;;
62071;SDS011;48031;48.542;13.232;2024-03-08T07:19:41;18.42;;;7.00;;
62071;SDS011;48031;48.542;13.232;2024-03-08T07:23:44;18.88;;;8.45;;
62071;SDS011;48031;48.542;13.232;2024-03-08T07:28:00;8.20;;;4.28;;
62071;SDS011;48031;48.542;13.232;2024-03-08T07:32:02;12.63;;;4.90;;
62071;SDS011;48031;48.542;13.232;2024-03-08T07:36:21;15.45;;;5.97;;
62071;SDS011;48031;48.542;13.232;2024-03-08T07:40:24;12.63;;;4.93;;
62071;SDS011;48031;48.542;13.232;2024-03-08T07:44:26;16.95;;;6.40;;
62071;SDS011;48031;48.542;13.232;2024-03-08T07:48:28;18.50;;;7.57;;
62071;SDS011;48031;48.542;13.232;2024-03-08T07:52:32;15.23;;;6.20;;
62071;SDS011;48031;48.542;13.232;2024-03-08T07:56:35;16.98;;;7.38;;
62071;SDS011;48031;48.542;13.232;2024-03-08T08:00:39;13.13;;;6.22;;
62071;SDS011;48031;48.542;13.232;2024-03-08T08:04:44;16.40;;;7.38;;
62071;SDS011;48031;48.542;13.232;2024-03-08T08:08:47;16.08;;;6.15;;
62071;SDS011;48031;48.542;13.232;2024-03-08T08:12:49;15.90;;;6.85;;
62071;SDS011;48031;48.542;13.232;2024-03-08T08:16:51;23.30;;;8.63;;
62071;SDS011;48031;48.542;13.232;2024-03-08T08:20:54;20.05;;;6.95;;
62071;SDS011;48031;48.542;13.232;2024-03-08T08:24:57;19.50;;;7.28;;
62071;SDS011;48031;48.542;13.232;2024-03-08T08:28:58;15.98;;;6.53;;
62071;SDS011;48031;48.542;13.232;2024-03-08T08:33:01;13.02;;;6.32;;
62071;SDS011;48031;48.542;13.232;2024-03-08T08:37:03;18.27;;;7.43;;
62071;SDS011;48031;48.542;13.232;2024-03-08T08:41:06;14.32;;;6.60;;
62071;SDS011;48031;48.542;13.232;2024-03-08T08:45:08;26.63;;;9.43;;
62071;SDS011;48031;48.542;13.232;2024-03-08T08:49:18;15.13;;;6.60;;
62071;SDS011;48031;48.542;13.232;2024-03-08T08:53:22;14.43;;;6.60;;
62071;SDS011;48031;48.542;13.232;2024-03-08T08:57:25;16.25;;;6.43;;
62071;SDS011;48031;48.542;13.232;2024-03-08T09:01:28;17.73;;;8.40;;
62071;SDS011;48031;48.542;13.232;2024-03-08T09:05:31;8.48;;;4.43;;
62071;SDS011;48031;48.542;13.232;2024-03-08T09:09:35;13.07;;;5.40;;
62071;SDS011;48031;48.542;13.232;2024-03-08T09:13:38;11.88;;;5.97;;
62071;SDS011;48031;48.542;13.232;2024-03-08T09:17:40;12.00;;;5.32;;
62071;SDS011;48031;48.542;13.232;2024-03-08T09:21:42;11.43;;;5.43;;
62071;SDS011;48031;48.542;13.232;2024-03-08T09:25:44;7.95;;;3.75;;
62071;SDS011;48031;48.542;13.232;2024-03-08T09:29:48;12.18;;;5.38;;
62071;SDS011;48031;48.542;13.232;2024-03-08T09:33:51;11.07;;;5.90;;
62071;SDS011;48031;48.542;13.232;2024-03-08T09:37:53;8.95;;;4.43;;
62071;SDS011;48031;48.542;13.232;2024-03-08T09:41:56;11.88;;;5.85;;
62071;SDS011;48031;48.542;13.232;2024-03-08T09:45:57;10.80;;;5.75;;
62071;SDS011;48031;48.542;13.232;2024-03-08T09:50:00;11.13;;;5.82;;
62071;SDS011;48031;48.542;13.232;2024-03-08T09:54:02;10.07;;;5.55;;
62071;SDS011;48031;48.542;13.232;2024-03-08T09:58:17;14.32;;;7.03;;
62071;SDS011;48031;48.542;13.232;2024-03-08T10:02:45;12.30;;;5.65;;
62071;SDS011;48031;48.542;13.232;2024-03-08T10:06:47;8.75;;;5.10;;
62071;SDS011;48031;48.542;13.232;2024-03-08T10:10:50;13.45;;;6.00;;
62071;SDS011;48031;48.542;13.232;2024-03-08T10:14:54;10.77;;;5.55;;
62071;SDS011;48031;48.542;13.232;2024-03-08T10:18:56;10.20;;;4.97;;
62071;SDS011;48031;48.542;13.232;2024-03-08T10:23:02;8.75;;;5.35;;
62071;SDS011;48031;48.542;13.232;2024-03-08T10:27:12;6.38;;;4.15;;
62071;SDS011;48031;48.542;13.232;2024-03-08T10:31:14;8.93;;;5.63;;
62071;SDS011;48031;48.542;13.232;2024-03-08T10:35:20;7.85;;;4.03;;
62071;SDS011;48031;48.542;13.232;2024-03-08T10:39:23;8.07;;;4.40;;
62071;SDS011;48031;48.542;13.232;2024-03-08T10:43:25;11.68;;;5.32;;
62071;SDS011;48031;48.542;13.232;2024-03-08T10:47:32;9.75;;;4.20;;
62071;SDS011;48031;48.542;13.232;2024-03-08T10:51:38;6.80;;;3.85;;
62071;SDS011;48031;48.542;13.232;2024-03-08T10:55:42;5.88;;;3.95;;
62071;SDS011;48031;48.542;13.232;2024-03-08T10:59:45;8.13;;;4.20;;
62071;SDS011;48031;48.542;13.232;2024-03-08T11:03:48;8.35;;;4.50;;
62071;SDS011;48031;48.542;13.232;2024-03-08T11:07:52;11.00;;;4.60;;
62071;SDS011;48031;48.542;13.232;2024-03-08T11:20:27;6.97;;;3.95;;
62071;SDS011;48031;48.542;13.232;2024-03-08T11:24:38;6.93;;;4.22;;
62071;SDS011;48031;48.542;13.232;2024-03-08T11:28:44;6.45;;;4.38;;
62071;SDS011;48031;48.542;13.232;2024-03-08T11:32:45;6.85;;;4.63;;
62071;SDS011;48031;48.542;13.232;2024-03-08T11:36:50;6.15;;;3.95;;
62071;SDS011;48031;48.542;13.232;2024-03-08T11:40:57;5.97;;;3.90;;
62071;SDS011;48031;48.542;13.232;2024-03-08T11:44:59;8.30;;;4.53;;
62071;SDS011;48031;48.542;13.232;2024-03-08T11:49:01;6.95;;;4.00;;
62071;SDS011;48031;48.542;13.232;2024-03-08T11:53:05;9.18;;;3.92;;
62071;SDS011;48031;48.542;13.232;2024-03-08T11:57:07;8.80;;;3.50;;
62071;SDS011;48031;48.542;13.232;2024-03-08T12:01:09;6.72;;;3.85;;
62071;SDS011;48031;48.542;13.232;2024-03-08T12:05:14;5.30;;;3.50;;
62071;SDS011;48031;48.542;13.232;2024-03-08T12:09:18;5.72;;;3.33;;
62071;SDS011;48031;48.542;13.232;2024-03-08T12:13:21;5.03;;;3.00;;
62071;SDS011;48031;48.542;13.232;2024-03-08T12:17:23;7.93;;;3.35;;
62071;SDS011;48031;48.542;13.232;2024-03-08T12:21:26;4.20;;;3.28;;
62071;SDS011;48031;48.542;13.232;2024-03-08T12:25:31;7.38;;;3.00;;
62071;SDS011;48031;48.542;13.232;2024-03-08T12:29:34;3.60;;;3.10;;
62071;SDS011;48031;48.542;13.232;2024-03-08T12:33:56;17.45;;;3.60;;
62071;SDS011;48031;48.542;13.232;2024-03-08T12:38:00;7.13;;;3.60;;
62071;SDS011;48031;48.542;13.232;2024-03-08T12:42:02;7.85;;;3.50;;
62071;SDS011;48031;48.542;13.232;2024-03-08T12:46:05;3.75;;;2.90;;
62071;SDS011;48031;48.542;13.232;2024-03-08T12:50:08;7.22;;;3.33;;
62071;SDS011;48031;48.542;13.232;2024-03-08T12:54:11;9.75;;;3.30;;
62071;SDS011;48031;48.542;13.232;2024-03-08T12:58:12;6.07;;;3.40;;
62071;SDS011;48031;48.542;13.232;2024-03-08T13:02:14;9.38;;;3.05;;
62071;SDS011;48031;48.542;13.232;2024-03-08T13:06:19;7.78;;;3.15;;
62071;SDS011;48031;48.542;13.232;2024-03-08T13:10:23;12.20;;;3.40;;
62071;SDS011;48031;48.542;13.232;2024-03-08T13:14:24;7.15;;;3.05;;
62071;SDS011;48031;48.542;13.232;2024-03-08T13:18:26;9.25;;;3.13;;
62071;SDS011;48031;48.542;13.232;2024-03-08T13:22:29;3.92;;;3.20;;
62071;SDS011;48031;48.542;13.232;2024-03-08T13:26:31;4.28;;;2.78;;
62071;SDS011;48031;48.542;13.232;2024-03-08T13:30:36;3.67;;;2.80;;
62071;SDS011;48031;48.542;13.232;2024-03-08T13:34:41;4.88;;;3.17;;
62071;SDS011;48031;48.542;13.232;2024-03-08T13:38:44;6.32;;;2.80;;
62071;SDS011;48031;48.542;13.232;2024-03-08T13:42:46;7.45;;;3.13;;
62071;SDS011;48031;48.542;13.232;2024-03-08T13:46:48;6.38;;;2.60;;
62071;SDS011;48031;48.542;13.232;2024-03-08T13:50:54;4.38;;;2.60;;
62071;SDS011;48031;48.542;13.232;2024-03-08T13:54:58;4.32;;;3.10;;
62071;SDS011;48031;48.542;13.232;2024-03-08T13:59:00;7.07;;;3.13;;
62071;SDS011;48031;48.542;13.232;2024-03-08T14:03:03;7.35;;;2.90;;
62071;SDS011;48031;48.542;13.232;2024-03-08T14:07:08;5.65;;;2.78;;
62071;SDS011;48031;48.542;13.232;2024-03-08T14:11:10;12.15;;;2.97;;
62071;SDS011;48031;48.542;13.232;2024-03-08T14:15:15;4.25;;;2.40;;
62071;SDS011;48031;48.542;13.232;2024-03-08T14:19:19;7.72;;;2.90;;
62071;SDS011;48031;48.542;13.232;2024-03-08T14:23:20;7.40;;;2.78;;
62071;SDS011;48031;48.542;13.232;2024-03-08T14:27:23;3.67;;;2.60;;
62071;SDS011;48031;48.542;13.232;2024-03-08T14:31:25;5.45;;;2.60;;
62071;SDS011;48031;48.542;13.232;2024-03-08T14:35:27;4.78;;;2.47;;
62071;SDS011;48031;48.542;13.232;2024-03-08T14:39:31;7.78;;;2.58;;
62071;SDS011;48031;48.542;13.232;2024-03-08T14:43:35;3.95;;;2.75;;
62071;SDS011;48031;48.542;13.232;2024-03-08T14:47:37;10.77;;;3.10;;
62071;SDS011;48031;48.542;13.232;2024-03-08T14:51:39;6.20;;;2.47;;
62071;SDS011;48031;48.542;13.232;2024-03-08T14:55:42;3.78;;;2.92;;
62071;SDS011;48031;48.542;13.232;2024-03-08T14:59:44;9.35;;;3.13;;
62071;SDS011;48031;48.542;13.232;2024-03-08T15:03:46;3.95;;;2.85;;
62071;SDS011;48031;48.542;13.232;2024-03-08T15:07:48;5.13;;;2.97;;
62071;SDS011;48031;48.542;13.232;2024-03-08T15:11:50;4.28;;;2.90;;
62071;SDS011;48031;48.542;13.232;2024-03-08T15:15:52;4.57;;;3.05;;
62071;SDS011;48031;48.542;13.232;2024-03-08T15:19:57;3.17;;;2.38;;
62071;SDS011;48031;48.542;13.232;2024-03-08T15:23:59;6.90;;;2.38;;
62071;SDS011;48031;48.542;13.232;2024-03-08T15:28:01;3.88;;;2.95;;
62071;SDS011;48031;48.542;13.232;2024-03-08T15:32:06;5.60;;;2.80;;
62071;SDS011;48031;48.542;13.232;2024-03-08T15:36:10;4.05;;;3.00;;
62071;SDS011;48031;48.542;13.232;2024-03-08T15:40:13;3.97;;;2.35;;
62071;SDS011;48031;48.542;13.232;2024-03-08T15:44:22;3.40;;;2.90;;
62071;SDS011;48031;48.542;13.232;2024-03-08T15:48:24;3.70;;;2.78;;
62071;SDS011;48031;48.542;13.232;2024-03-08T15:52:26;6.93;;;3.58;;
62071;SDS011;48031;48.542;13.232;2024-03-08T15:56:28;5.05;;;3.78;;
62071;SDS011;48031;48.542;13.232;2024-03-08T16:00:30;6.07;;;3.45;;
62071;SDS011;48031;48.542;13.232;2024-03-08T16:04:36;7.13;;;3.33;;
62071;SDS011;48031;48.542;13.232;2024-03-08T16:08:38;4.88;;;2.95;;
62071;SDS011;48031;48.542;13.232;2024-03-08T16:12:41;5.93;;;2.90;;
62071;SDS011;48031;48.542;13.232;2024-03-08T16:16:43;7.57;;;3.20;;
62071;SDS011;48031;48.542;13.232;2024-03-08T16:20:45;5.05;;;3.40;;
62071;SDS011;48031;48.542;13.232;2024-03-08T16:24:48;5.78;;;2.80;;
62071;SDS011;48031;48.542;13.232;2024-03-08T16:28:52;8.35;;;3.35;;
62071;SDS011;48031;48.542;13.232;2024-03-08T16:32:55;5.30;;;3.45;;
62071;SDS011;48031;48.542;13.232;2024-03-08T16:36:57;8.13;;;3.97;;
62071;SDS011;48031;48.542;13.232;2024-03-08T16:41:00;5.03;;;3.20;;
62071;SDS011;48031;48.542;13.232;2024-03-08T16:45:02;5.00;;;3.10;;
62071;SDS011;48031;48.542;13.232;2024-03-08T16:49:06;5.10;;;3.25;;
62071;SDS011;48031;48.542;13.232;2024-03-08T16:53:08;5.75;;;3.10;;
62071;SDS011;48031;48.542;13.232;2024-03-08T16:57:09;5.47;;;2.47;;
62071;SDS011;48031;48.542;13.232;2024-03-08T17:01:15;6.55;;;2.53;;
62071;SDS011;48031;48.542;13.232;2024-03-08T17:05:18;7.57;;;3.05;;
62071;SDS011;48031;48.542;13.232;2024-03-08T17:09:20;4.55;;;2.58;;
62071;SDS011;48031;48.542;13.232;2024-03-08T17:13:23;4.82;;;2.60;;
62071;SDS011;48031;48.542;13.232;2024-03-08T17:17:25;5.93;;;2.17;;
62071;SDS011;48031;48.542;13.232;2024-03-08T17:21:27;6.18;;;2.60;;
62071;SDS011;48031;48.542;13.232;2024-03-08T17:25:29;5.75;;;3.10;;
62071;SDS011;48031;48.542;13.232;2024-03-08T17:29:32;5.10;;;3.20;;
62071;SDS011;48031;48.542;13.232;2024-03-08T17:33:34;6.20;;;2.63;;
62071;SDS011;48031;48.542;13.232;2024-03-08T17:37:37;6.18;;;3.40;;
62071;SDS011;48031;48.542;13.232;2024-03-08T17:41:39;10.13;;;3.30;;
62071;SDS011;48031;48.542;13.232;2024-03-08T17:45:42;9.20;;;3.95;;
62071;SDS011;48031;48.542;13.232;2024-03-08T17:49:47;7.30;;;4.32;;
62071;SDS011;48031;48.542;13.232;2024-03-08T17:53:52;9.07;;;3.85;;
62071;SDS011;48031;48.542;13.232;2024-03-08T17:57:54;11.30;;;4.10;;
62071;SDS011;48031;48.542;13.232;2024-03-08T18:01:56;8.13;;;4.47;;
62071;SDS011;48031;48.542;13.232;2024-03-08T18:05:58;10.75;;;4.28;;
62071;SDS011;48031;48.542;13.232;2024-03-08T18:10:00;7.40;;;4.25;;
62071;SDS011;48031;48.542;13.232;2024-03-08T18:14:02;10.10;;;4.50;;
62071;SDS011;48031;48.542;13.232;2024-03-08T18:18:06;9.57;;;4.85;;
62071;SDS011;48031;48.542;13.232;2024-03-08T18:22:12;9.05;;;4.25;;
62071;SDS011;48031;48.542;13.232;2024-03-08T18:26:14;8.18;;;3.15;;
62071;SDS011;48031;48.542;13.232;2024-03-08T18:30:16;8.27;;;4.18;;
62071;SDS011;48031;48.542;13.232;2024-03-08T18:34:18;9.88;;;3.85;;
62071;SDS011;48031;48.542;13.232;2024-03-08T18:38:21;8.40;;;4.40;;
62071;SDS011;48031;48.542;13.232;2024-03-08T18:42:24;7.88;;;4.00;;
62071;SDS011;48031;48.542;13.232;2024-03-08T18:46:26;7.82;;;3.53;;
62071;SDS011;48031;48.542;13.232;2024-03-08T18:50:28;9.63;;;4.35;;
62071;SDS011;48031;48.542;13.232;2024-03-08T18:54:31;8.10;;;3.63;;
62071;SDS011;48031;48.542;13.232;2024-03-08T18:58:35;7.85;;;4.32;;
62071;SDS011;48031;48.542;13.232;2024-03-08T19:02:54;6.57;;;3.75;;
62071;SDS011;48031;48.542;13.232;2024-03-08T19:06:56;6.65;;;3.65;;
62071;SDS011;48031;48.542;13.232;2024-03-08T19:10:58;6.88;;;3.40;;
62071;SDS011;48031;48.542;13.232;2024-03-08T19:15:00;8.13;;;4.07;;
62071;SDS011;48031;48.542;13.232;2024-03-08T19:19:09;6.75;;;3.22;;
62071;SDS011;48031;48.542;13.232;2024-03-08T19:23:11;8.82;;;4.65;;
62071;SDS011;48031;48.542;13.232;2024-03-08T19:27:15;7.43;;;4.10;;
62071;SDS011;48031;48.542;13.232;2024-03-08T19:31:17;8.02;;;4.03;;
62071;SDS011;48031;48.542;13.232;2024-03-08T19:35:20;5.65;;;3.20;;
62071;SDS011;48031;48.542;13.232;2024-03-08T19:39:23;9.52;;;4.13;;
62071;SDS011;48031;48.542;13.232;2024-03-08T19:43:27;9.63;;;5.15;;
62071;SDS011;48031;48.542;13.232;2024-03-08T19:52:27;8.70;;;3.83;;
62071;SDS011;48031;48.542;13.232;2024-03-08T19:56:29;7.93;;;4.28;;
62071;SDS011;48031;48.542;13.232;2024-03-08T20:00:32;6.28;;;3.33;;
62071;SDS011;48031;48.542;13.232;2024-03-08T20:04:35;5.07;;;2.75;;
62071;SDS011;48031;48.542;13.232;2024-03-08T20:08:37;7.65;;;4.32;;
62071;SDS011;48031;48.542;13.232;2024-03-08T20:12:43;5.93;;;2.85;;
62071;SDS011;48031;48.542;13.232;2024-03-08T20:16:44;5.20;;;2.85;;
62071;SDS011;48031;48.542;13.232;2024-03-08T20:20:50;7.55;;;3.90;;
62071;SDS011;48031;48.542;13.232;2024-03-08T20:24:55;13.45;;;4.00;;
62071;SDS011;48031;48.542;13.232;2024-03-08T20:28:57;10.70;;;4.88;;
62071;SDS011;48031;48.542;13.232;2024-03-08T20:33:02;6.15;;;3.58;;
62071;SDS011;48031;48.542;13.232;2024-03-08T20:37:05;7.73;;;3.43;;
62071;SDS011;48031;48.542;13.232;2024-03-08T20:41:10;6.50;;;3.78;;
62071;SDS011;48031;48.542;13.232;2024-03-08T20:45:13;6.45;;;4.07;;
62071;SDS011;48031;48.542;13.232;2024-03-08T20:49:16;7.45;;;4.43;;
62071;SDS011;48031;48.542;13.232;2024-03-08T20:53:20;10.23;;;4.05;;
62071;SDS011;48031;48.542;13.232;2024-03-08T20:57:22;5.63;;;3.05;;
62071;SDS011;48031;48.542;13.232;2024-03-08T21:01:24;6.35;;;3.65;;
62071;SDS011;48031;48.542;13.232;2024-03-08T21:05:32;6.68;;;3.90;;
62071;SDS011;48031;48.542;13.232;2024-03-08T21:09:34;7.20;;;3.40;;
62071;SDS011;48031;48.542;13.232;2024-03-08T21:13:37;7.03;;;3.65;;
62071;SDS011;48031;48.542;13.232;2024-03-08T21:17:39;5.53;;;3.08;;
62071;SDS011;48031;48.542;13.232;2024-03-08T21:21:43;4.03;;;2.53;;
62071;SDS011;48031;48.542;13.232;2024-03-08T21:25:44;6.10;;;2.22;;
62071;SDS011;48031;48.542;13.232;2024-03-08T21:29:47;5.75;;;3.47;;
62071;SDS011;48031;48.542;13.232;2024-03-08T21:33:49;4.95;;;2.97;;
62071;SDS011;48031;48.542;13.232;2024-03-08T21:37:50;4.72;;;2.47;;
62071;SDS011;48031;48.542;13.232;2024-03-08T21:41:52;5.55;;;3.35;;
62071;SDS011;48031;48.542;13.232;2024-03-08T21:45:55;5.22;;;3.00;;
62071;SDS011;48031;48.542;13.232;2024-03-08T21:49:58;5.63;;;3.00;;
62071;SDS011;48031;48.542;13.232;2024-03-08T21:54:00;4.65;;;3.08;;
62071;SDS011;48031;48.542;13.232;2024-03-08T21:58:02;4.47;;;2.45;;
62071;SDS011;48031;48.542;13.232;2024-03-08T22:02:07;3.88;;;2.35;;
62071;SDS011;48031;48.542;13.232;2024-03-08T22:06:10;5.50;;;3.22;;
62071;SDS011;48031;48.542;13.232;2024-03-08T22:10:13;4.03;;;2.67;;
62071;SDS011;48031;48.542;13.232;2024-03-08T22:14:26;4.68;;;2.72;;
62071;SDS011;48031;48.542;13.232;2024-03-08T22:18:28;6.70;;;4.00;;
62071;SDS011;48031;48.542;13.232;2024-03-08T22:22:33;4.20;;;2.35;;
62071;SDS011;48031;48.542;13.232;2024-03-08T22:26:38;4.80;;;2.90;;
62071;SDS011;48031;48.542;13.232;2024-03-08T22:30:40;5.18;;;2.80;;
62071;SDS011;48031;48.542;13.232;2024-03-08T22:34:42;5.10;;;3.20;;
62071;SDS011;48031;48.542;13.232;2024-03-08T22:38:44;5.13;;;3.22;;
62071;SDS011;48031;48.542;13.232;2024-03-08T22:42:46;3.63;;;2.30;;
62071;SDS011;48031;48.542;13.232;2024-03-08T22:46:48;7.45;;;2.92;;
62071;SDS011;48031;48.542;13.232;2024-03-08T22:50:50;7.70;;;3.83;;
62071;SDS011;48031;48.542;13.232;2024-03-08T22:54:52;5.47;;;3.17;;
62071;SDS011;48031;48.542;13.232;2024-03-08T22:58:53;5.93;;;3.33;;
62071;SDS011;48031;48.542;13.232;2024-03-08T23:02:56;5.28;;;3.38;;
62071;SDS011;48031;48.542;13.232;2024-03-08T23:06:59;3.85;;;2.33;;
62071;SDS011;48031;48.542;13.232;2024-03-08T23:11:01;7.10;;;3.22;;
62071;SDS011;48031;48.542;13.232;2024-03-08T23:15:05;7.03;;;3.53;;
62071;SDS011;48031;48.542;13.232;2024-03-08T23:19:11;5.20;;;3.00;;
62071;SDS011;48031;48.542;13.232;2024-03-08T23:23:12;9.75;;;3.70;;
62071;SDS011;48031;48.542;13.232;2024-03-08T23:27:14;4.25;;;2.53;;
62071;SDS011;48031;48.542;13.232;2024-03-08T23:31:16;6.03;;;2.30;;
62071;SDS011;48031;48.542;13.232;2024-03-08T23:35:18;9.45;;;3.45;;
62071;SDS011;48031;48.542;13.232;2024-03-08T23:39:23;7.05;;;3.40;;
62071;SDS011;48031;48.542;13.232;2024-03-08T23:43:27;6.30;;;3.47;;
62071;SDS011;48031;48.542;13.232;2024-03-08T23:47:29;4.93;;;3.05;;
62071;SDS011;48031;48.542;13.232;2024-03-08T23:51:30;3.85;;;2.70;;
62071;SDS011;48031;48.542;13.232;2024-03-08T23:55:34;3.67;;;2.83;;
62071;SDS011;48031;48.542;13.232;2024-03-08T23:59:36;4.47;;;3.17;;
